createdAt,value
2023-02-24T00:01:51.422Z,31.90
2023-02-24T00:06:57.761Z,32.50
2023-02-24T00:12:08.937Z,33.10
2023-02-24T00:17:15.776Z,32.00
2023-02-24T00:22:22.192Z,30.80
2023-02-24T00:27:28.521Z,31.50
2023-02-24T00:32:36.607Z,31.10
2023-02-24T00:37:43.297Z,33.00
2023-02-24T00:42:48.846Z,32.10
2023-02-24T00:47:57.594Z,30.40
2023-02-24T00:53:03.593Z,32.10
2023-02-24T00:58:11.291Z,32.30
2023-02-24T01:03:18.633Z,36.10
2023-02-24T01:08:24.990Z,37.80
2023-02-24T01:13:31.127Z,35.90
2023-02-24T01:18:37.460Z,31.80
2023-02-24T01:23:47.435Z,31.30
2023-02-24T01:28:54.105Z,33.30
2023-02-24T01:34:06.067Z,34.60
2023-02-24T01:39:13.597Z,34.90
2023-02-24T01:44:55.747Z,35.10
2023-02-24T01:50:03.079Z,33.00
2023-02-24T01:55:14.783Z,30.50
2023-02-24T02:00:37.929Z,31.70
2023-02-24T02:05:48.518Z,32.30
2023-02-24T02:10:58.965Z,34.30
2023-02-24T02:16:39.603Z,33.60
2023-02-24T02:22:09.048Z,33.60
2023-02-24T02:27:34.100Z,30.70
2023-02-24T02:33:21.737Z,31.90
2023-02-24T02:38:34.805Z,34.30
2023-02-24T02:43:49.190Z,33.80
2023-02-24T02:48:59.425Z,34.10
2023-02-24T02:54:12.727Z,34.90
2023-02-24T02:59:23.312Z,31.90
2023-02-24T03:04:30.265Z,34.60
2023-02-24T03:09:40.950Z,34.90
2023-02-24T03:14:53.265Z,35.00
2023-02-24T03:20:12.297Z,36.90
2023-02-24T03:25:20.173Z,35.80
2023-02-24T03:30:32.925Z,33.60
2023-02-24T03:35:42.315Z,33.40
2023-02-24T03:40:48.814Z,38.30
2023-02-24T03:46:01.550Z,37.50
2023-02-24T03:51:10.395Z,37.20
2023-02-24T03:56:40.523Z,36.10
2023-02-24T04:01:56.085Z,36.50
2023-02-24T04:07:13.725Z,40.20
2023-02-24T04:12:24.597Z,40.20
2023-02-24T04:17:38.576Z,37.00
2023-02-24T04:22:51.659Z,38.30
2023-02-24T04:28:01.337Z,38.60
2023-02-24T04:33:08.113Z,42.20
2023-02-24T04:38:15.310Z,39.10
2023-02-24T04:43:21.530Z,36.00
2023-02-24T04:48:27.460Z,39.20
2023-02-24T04:53:33.701Z,40.50
2023-02-24T04:58:42.726Z,36.80
2023-02-24T05:03:48.381Z,36.70
2023-02-24T05:08:54.058Z,39.40
2023-02-24T05:14:00.547Z,41.90
2023-02-24T05:19:25.013Z,43.00
2023-02-24T05:24:33.237Z,38.90
2023-02-24T05:29:40.486Z,39.10
2023-02-24T05:34:47.002Z,38.60
2023-02-24T05:40:00.133Z,41.00
2023-02-24T05:45:07.095Z,40.40
2023-02-24T05:50:14.954Z,42.30
2023-02-24T05:55:22.852Z,47.20
2023-02-24T06:00:28.904Z,49.80
2023-02-24T06:05:35.493Z,48.80
2023-02-24T06:10:41.073Z,45.10
2023-02-24T06:15:50.600Z,42.50
2023-02-24T06:20:56.619Z,37.80
2023-02-24T06:26:04.996Z,39.90
2023-02-24T06:31:11.485Z,38.50
2023-02-24T06:36:17.133Z,36.60
2023-02-24T06:41:23.119Z,36.00
2023-02-24T06:46:29.760Z,38.40
2023-02-24T06:51:35.475Z,36.60
2023-02-24T06:56:41.846Z,34.90
2023-02-24T07:01:47.512Z,34.90
2023-02-24T07:06:55.994Z,36.70
2023-02-24T07:12:04.168Z,32.30
2023-02-24T07:17:10.517Z,31.90
2023-02-24T07:22:17.852Z,33.40
2023-02-24T07:27:23.637Z,35.10
2023-02-24T07:32:30.507Z,32.00
2023-02-24T07:37:36.276Z,31.40
2023-02-24T07:42:42.225Z,33.90
2023-02-24T07:47:49.507Z,34.50
2023-02-24T07:52:55.653Z,30.70
2023-02-24T07:58:03.273Z,32.30
2023-02-24T08:03:09.209Z,33.50
2023-02-24T08:08:21.097Z,29.40
2023-02-24T08:13:34.820Z,29.30
2023-02-24T08:18:43.157Z,30.30
2023-02-24T08:23:49.880Z,26.20
2023-02-24T08:28:55.984Z,26.20
2023-02-24T08:34:02.245Z,27.20
2023-02-24T08:39:08.541Z,26.00
2023-02-24T08:44:18.968Z,24.40
2023-02-24T08:49:25.358Z,25.10
2023-02-24T08:54:32.023Z,26.70
2023-02-24T08:59:40.293Z,24.70
2023-02-24T09:04:47.611Z,25.40
2023-02-24T09:09:56.493Z,25.40
2023-02-24T09:15:04.851Z,25.80
2023-02-24T09:20:27.666Z,23.60
2023-02-24T09:25:44.574Z,25.50
2023-02-24T09:30:55.519Z,25.50
2023-02-24T09:41:33.605Z,22.90
2023-02-24T09:46:54.127Z,24.80
2023-02-24T09:52:08.956Z,25.80
2023-02-24T09:57:25.416Z,23.70
2023-02-24T10:02:46.652Z,23.30
2023-02-24T10:07:57.193Z,23.30
2023-02-24T10:13:17.099Z,19.70
2023-02-24T10:18:41.186Z,18.00
2023-02-24T10:24:01.052Z,18.20
2023-02-24T10:29:22.485Z,19.00
2023-02-24T10:34:32.251Z,18.00
2023-02-24T10:39:43.500Z,18.00
2023-02-24T10:45:02.271Z,16.20
2023-02-24T10:50:20.681Z,17.30
2023-02-24T10:55:43.207Z,18.40
2023-02-24T11:01:09.234Z,16.70
2023-02-24T11:06:52.690Z,14.70
2023-02-24T11:12:22.749Z,16.80
2023-02-24T11:17:29.047Z,15.10
2023-02-24T11:22:39.561Z,15.60
2023-02-24T11:27:47.663Z,16.20
2023-02-24T11:33:07.251Z,12.70
2023-02-24T11:38:28.066Z,11.00
2023-02-24T11:43:39.057Z,8.80
2023-02-24T11:48:52.263Z,9.40
2023-02-24T11:54:01.484Z,11.00
2023-02-24T11:59:14.370Z,11.60
2023-02-24T12:04:24.847Z,11.20
2023-02-24T12:09:37.107Z,11.60
2023-02-24T12:14:47.934Z,11.30
2023-02-24T12:20:01.736Z,13.30
2023-02-24T12:25:13.374Z,13.40
2023-02-24T12:30:48.628Z,11.90
2023-02-24T12:36:04.807Z,15.20
2023-02-24T12:41:29.397Z,12.80
2023-02-24T12:46:37.785Z,12.80
2023-02-24T12:51:56.620Z,13.00
2023-02-24T12:57:12.400Z,12.80
2023-02-24T13:02:30.107Z,14.80
2023-02-24T13:07:52.744Z,11.90
2023-02-24T13:13:08.538Z,10.00
2023-02-24T13:18:26.134Z,10.50
2023-02-24T13:23:31.900Z,10.90
2023-02-24T13:28:39.148Z,9.60
2023-02-24T13:33:45.836Z,10.40
2023-02-24T13:39:04.363Z,9.30
2023-02-24T13:44:30.157Z,9.80
2023-02-24T13:49:43.898Z,9.40
2023-02-24T13:55:20.683Z,9.00
2023-02-24T14:00:39.699Z,9.00
2023-02-24T14:05:45.894Z,9.70
2023-02-24T14:10:56.195Z,8.50
2023-02-24T14:16:06.694Z,9.00
2023-02-24T14:21:24.006Z,9.20
2023-02-24T14:26:44.511Z,9.60
2023-02-24T14:31:53.362Z,9.40
2023-02-24T14:37:02.002Z,9.90
2023-02-24T14:42:15.221Z,10.90
2023-02-24T14:47:24.358Z,11.40
2023-02-24T14:52:40.228Z,11.30
2023-02-24T14:57:51.807Z,13.00
2023-02-24T15:03:05.906Z,12.90
2023-02-24T15:08:24.075Z,12.00
2023-02-24T15:13:37.746Z,12.50
2023-02-24T15:18:43.981Z,12.10
2023-02-24T15:23:57.857Z,12.40
2023-02-24T15:29:14.664Z,14.60
2023-02-24T15:34:23.119Z,14.20
2023-02-24T15:39:32.398Z,14.10
2023-02-24T15:44:38.409Z,14.80
2023-02-24T15:49:44.576Z,14.80
2023-02-24T15:54:50.907Z,14.00
2023-02-24T15:59:56.948Z,13.10
2023-02-24T16:05:02.798Z,11.80
2023-02-24T16:10:15.123Z,11.00
2023-02-24T16:15:26.096Z,12.50
2023-02-24T16:20:33.770Z,11.10
2023-02-24T16:25:41.551Z,9.90
2023-02-24T16:30:48.542Z,9.00
2023-02-24T16:35:54.821Z,7.90
2023-02-24T16:41:00.798Z,8.30
2023-02-24T16:46:12.141Z,8.30
2023-02-24T16:51:18.599Z,7.90
2023-02-24T16:56:24.695Z,9.50
2023-02-24T17:01:31.297Z,10.00
2023-02-24T17:06:37.295Z,7.60
2023-02-24T17:11:44.168Z,9.40
2023-02-24T17:16:50.167Z,10.10
2023-02-24T17:21:56.576Z,9.90
2023-02-24T17:27:04.308Z,10.20
2023-02-24T17:32:10.956Z,8.90
2023-02-24T17:37:18.402Z,9.10
2023-02-24T17:42:24.488Z,7.70
2023-02-24T17:47:32.670Z,6.90
2023-02-24T17:52:38.619Z,7.90
2023-02-24T17:57:45.780Z,7.00
2023-02-24T18:02:53.010Z,7.70
2023-02-24T18:08:00.578Z,7.80
2023-02-24T18:13:06.212Z,7.10
2023-02-24T18:18:11.841Z,6.60
2023-02-24T18:23:17.675Z,6.20
2023-02-24T18:28:23.809Z,7.70
2023-02-24T18:33:29.636Z,8.20
2023-02-24T18:38:36.195Z,7.90
2023-02-24T18:43:43.272Z,10.80
2023-02-24T18:48:50.458Z,12.30
2023-02-24T18:53:57.300Z,11.10
2023-02-24T18:59:04.947Z,10.40
2023-02-24T19:04:11.584Z,10.60
2023-02-24T19:09:21.712Z,13.50
2023-02-24T19:14:28.033Z,11.80
2023-02-24T19:19:33.819Z,9.70
2023-02-24T19:24:39.748Z,11.00
2023-02-24T19:29:45.460Z,12.00
2023-02-24T19:34:51.422Z,11.10
2023-02-24T19:39:57.184Z,19.80
2023-02-24T19:45:03.969Z,19.60
2023-02-24T19:50:12.097Z,21.10
2023-02-24T19:55:18.060Z,21.60
2023-02-24T20:00:25.799Z,19.50
2023-02-24T20:05:31.531Z,22.60
2023-02-24T20:10:37.379Z,21.80
2023-02-24T20:15:43.485Z,26.30
2023-02-24T20:20:49.189Z,21.80
2023-02-24T20:25:56.710Z,18.00
2023-02-24T20:31:09.636Z,21.00
2023-02-24T20:36:17.915Z,25.70
2023-02-24T20:41:24.824Z,35.30
2023-02-24T20:46:32.147Z,29.30
2023-02-24T20:51:38.832Z,31.10
2023-02-24T20:56:46.141Z,25.80
2023-02-24T21:01:52.499Z,20.90
2023-02-24T21:06:58.364Z,19.00
2023-02-24T21:12:05.448Z,19.30
2023-02-24T21:17:12.995Z,23.00
2023-02-24T21:22:19.279Z,25.30
2023-02-24T21:27:25.948Z,24.90
2023-02-24T21:32:32.088Z,24.00
2023-02-24T21:37:40.101Z,24.90
2023-02-24T21:42:47.515Z,23.00
2023-02-24T21:47:54.265Z,24.90
2023-02-24T21:53:01.037Z,26.30
2023-02-24T21:58:07.362Z,26.40
2023-02-24T22:03:13.669Z,26.00
2023-02-24T22:08:19.676Z,26.80
2023-02-24T22:13:26.113Z,25.10
2023-02-24T22:18:32.102Z,24.90
2023-02-24T22:23:38.241Z,22.80
2023-02-24T22:28:46.665Z,26.80
2023-02-24T22:33:53.081Z,27.30
2023-02-24T22:39:00.727Z,26.50
2023-02-24T22:44:07.338Z,25.90
2023-02-24T22:49:13.471Z,25.90
2023-02-24T22:54:20.060Z,22.10
2023-02-24T22:59:26.080Z,19.20
2023-02-24T23:04:32.191Z,20.40
2023-02-24T23:09:38.632Z,20.80
2023-02-24T23:14:44.630Z,19.20
2023-02-24T23:19:50.382Z,19.30
2023-02-24T23:24:56.698Z,21.80
2023-02-24T23:30:03.751Z,18.60
2023-02-24T23:35:11.652Z,17.40
2023-02-24T23:40:17.782Z,16.10
2023-02-24T23:45:24.924Z,15.40
2023-02-24T23:50:31.859Z,15.70
2023-02-24T23:55:40.985Z,15.70
